Time;durP1;ratioP1;P1;durP2;ratioP2;P2;SDS_P1;SDS_P2;PMS_P1;PMS_P2;Temp;Humidity;BMP_temperature;BMP_pressure;BME280_temperature;BME280_humidity;BME280_pressure;Samples;Min_cycle;Max_cycle;Signal;HPM_P1;HPM_P2
2022/01/22 00:02:22;;;;;;;4.45;0.85;;;;;;;-147.53;100.00;57128.34;15276240;19;20090;-69
2022/01/22 00:07:24;;;;;;;2.35;0.90;;;;;;;-147.53;100.00;57128.34;15273222;19;20014;-69
2022/01/22 00:13:06;;;;;;;1.83;0.82;;;;;;;-147.53;100.00;57128.34;15274379;19;20024;-71
2022/01/22 00:17:49;;;;;;;3.30;0.88;;;;;;;-147.53;100.00;57128.34;15272257;19;20018;-70
2022/01/22 00:22:52;;;;;;;4.28;0.82;;;;;;;-147.53;100.00;57128.34;15271223;19;20078;-71
2022/01/22 00:27:54;;;;;;;3.45;1.17;;;;;;;-147.53;100.00;57128.34;15271088;19;20086;-70
2022/01/22 00:32:58;;;;;;;2.05;1.00;;;;;;;-147.53;100.00;57128.34;15270520;19;20015;-70
2022/01/22 00:38:00;;;;;;;4.13;0.98;;;;;;;-147.53;100.00;57128.34;15272234;19;20078;-70
2022/01/22 00:43:07;;;;;;;3.65;1.08;;;;;;;-147.53;100.00;57128.34;15271890;19;20035;-69
2022/01/22 00:48:08;;;;;;;1.75;0.80;;;;;;;-147.53;100.00;57128.34;15273331;19;20023;-70
2022/01/22 00:53:10;;;;;;;1.33;0.80;;;;;;;-147.53;100.00;57128.34;15269575;19;20018;-69
2022/01/22 00:58:15;;;;;;;3.20;0.95;;;;;;;-147.53;100.00;57128.34;15272541;19;20546;-70
2022/01/22 01:03:16;;;;;;;2.72;1.10;;;;;;;-147.53;100.00;57128.34;15271134;19;20522;-69
2022/01/22 01:08:18;;;;;;;3.33;1.27;;;;;;;-147.53;100.00;57128.34;15271388;19;20029;-70
2022/01/22 01:13:25;;;;;;;2.53;0.98;;;;;;;-147.53;100.00;57128.34;15268134;19;20018;-70
2022/01/22 01:34:30;;;;;;;6.97;1.17;;;;;;;-147.53;100.00;57128.34;15265462;19;20014;-69
2022/01/22 01:39:34;;;;;;;13.35;1.50;;;;;;;-147.53;100.00;57128.34;15272393;19;20384;-69
2022/01/22 01:44:41;;;;;;;7.05;1.50;;;;;;;-147.53;100.00;57128.34;15279888;19;20358;-70
2022/01/22 01:50:06;;;;;;;6.30;1.30;;;;;;;-147.53;100.00;57128.34;15283250;19;20011;-69
2022/01/22 01:55:17;;;;;;;7.78;1.50;;;;;;;-147.53;100.00;57128.34;15280554;19;20015;-70
2022/01/22 02:00:24;;;;;;;8.50;1.50;;;;;;;-147.53;100.00;57128.34;15177303;19;2004637;-67
2022/01/22 02:05:31;;;;;;;11.35;1.70;;;;;;;-147.53;100.00;57128.34;15277671;19;20407;-69
2022/01/22 02:10:39;;;;;;;11.27;2.05;;;;;;;-147.53;100.00;57128.34;15283615;19;20035;-69
2022/01/22 02:26:33;;;;;;;8.65;1.50;;;;;;;-147.53;100.00;57128.34;15278054;19;20097;-69
2022/01/22 02:31:42;;;;;;;9.75;1.75;;;;;;;-147.53;100.00;57128.34;15282694;19;20019;-69
2022/01/22 02:37:20;;;;;;;9.50;1.90;;;;;;;-147.53;100.00;57128.34;15278474;19;20019;-69
2022/01/22 02:42:14;;;;;;;8.05;1.50;;;;;;;-147.53;100.00;57128.34;15281435;19;20006;-70
2022/01/22 02:47:17;;;;;;;3.85;1.15;;;;;;;-147.53;100.00;57128.34;15276130;19;20738;-69
2022/01/22 02:52:22;;;;;;;10.95;1.83;;;;;;;-147.53;100.00;57128.34;15279255;19;20007;-70
2022/01/22 02:57:24;;;;;;;8.90;1.35;;;;;;;-147.53;100.00;57128.34;15276297;19;20011;-70
2022/01/22 03:02:29;;;;;;;4.25;0.93;;;;;;;-147.53;100.00;57128.34;15280825;19;20046;-69
2022/01/22 03:07:31;;;;;;;5.60;1.17;;;;;;;-147.53;100.00;57128.34;15280620;19;20606;-70
2022/01/22 03:23:08;;;;;;;4.80;1.10;;;;;;;-147.53;100.00;57128.34;15276718;19;20086;-69
2022/01/22 03:28:11;;;;;;;5.03;0.80;;;;;;;-147.53;100.00;57128.34;15278801;19;20021;-69
2022/01/22 03:33:16;;;;;;;9.48;1.23;;;;;;;-147.53;100.00;57128.34;15275929;19;20363;-68
2022/01/22 03:38:18;;;;;;;1.63;0.63;;;;;;;-147.53;100.00;57128.34;15275497;19;20027;-70
2022/01/22 03:43:20;;;;;;;7.35;0.98;;;;;;;-147.53;100.00;57128.34;15274338;19;20022;-68
2022/01/22 03:48:25;;;;;;;3.30;1.15;;;;;;;-147.53;100.00;57128.34;15275115;19;20085;-69
2022/01/22 03:53:29;;;;;;;5.95;1.05;;;;;;;-147.53;100.00;57128.34;15273110;19;20016;-69
2022/01/22 03:58:35;;;;;;;2.38;0.82;;;;;;;-147.53;100.00;57128.34;15276013;19;20018;-69
2022/01/22 04:04:13;;;;;;;3.80;1.00;;;;;;;-147.53;100.00;57128.34;15275327;19;20375;-68
2022/01/22 04:09:17;;;;;;;5.75;0.70;;;;;;;-147.53;100.00;57128.34;15276488;19;20015;-69
2022/01/22 04:14:24;;;;;;;4.05;1.33;;;;;;;-147.53;100.00;57128.34;15274671;19;20466;-68
2022/01/22 04:24:55;;;;;;;2.17;0.60;;;;;;;-147.53;100.00;57128.34;15275219;19;20022;-69
2022/01/22 04:29:58;;;;;;;6.60;1.10;;;;;;;-147.53;100.00;57128.34;15276348;19;20018;-69
2022/01/22 04:35:00;;;;;;;5.80;1.00;;;;;;;-147.53;100.00;57128.34;15270392;19;20023;-69
2022/01/22 04:40:03;;;;;;;4.80;0.93;;;;;;;-147.53;100.00;57128.34;15275426;19;20007;-69
2022/01/22 04:45:42;;;;;;;8.35;0.90;;;;;;;-147.53;100.00;57128.34;15269118;19;20066;-69
2022/01/22 04:55:50;;;;;;;10.02;1.27;;;;;;;-147.53;100.00;57128.34;15270705;19;20014;-68
2022/01/22 05:00:53;;;;;;;2.55;0.77;;;;;;;-147.53;100.00;57128.34;15273689;19;20101;-67
2022/01/22 05:06:06;;;;;;;4.70;0.82;;;;;;;-147.53;100.00;57128.34;15270859;19;20018;-69
2022/01/22 05:11:18;;;;;;;2.55;0.50;;;;;;;-147.53;100.00;57128.34;15272523;19;20030;-68
2022/01/22 05:16:21;;;;;;;6.18;0.63;;;;;;;-147.53;100.00;57128.34;15278657;19;20014;-69
2022/01/22 05:21:24;;;;;;;3.13;0.95;;;;;;;-147.53;100.00;57128.34;15286544;19;20019;-69
2022/01/22 05:31:54;;;;;;;0.40;0.35;;;;;;;-147.53;100.00;57128.34;15286028;19;20054;-68
2022/01/22 05:37:35;;;;;;;7.22;1.30;;;;;;;-147.53;100.00;57128.34;15276180;19;20023;-68
2022/01/22 05:42:37;;;;;;;4.05;0.90;;;;;;;-147.53;100.00;57128.34;15282609;19;20015;-68
2022/01/22 05:47:40;;;;;;;9.20;0.95;;;;;;;-147.53;100.00;57128.34;15285694;19;20379;-68
2022/01/22 05:52:55;;;;;;;6.63;1.00;;;;;;;-147.53;100.00;57128.34;15286916;19;20018;-68
2022/01/22 06:03:28;;;;;;;4.28;1.00;;;;;;;-147.53;100.00;57128.34;15281105;19;20038;-68
2022/01/22 06:08:41;;;;;;;7.00;0.82;;;;;;;-147.53;100.00;57128.34;15280201;19;20035;-68
2022/01/22 06:13:44;;;;;;;5.85;1.10;;;;;;;-147.53;100.00;57128.34;15279850;19;20018;-70
2022/01/22 06:18:52;;;;;;;10.00;1.42;;;;;;;-147.53;100.00;57128.34;15280878;19;20039;-70
2022/01/22 06:23:53;;;;;;;7.78;1.42;;;;;;;-147.53;100.00;57128.34;15282330;19;20014;-70
2022/01/22 06:28:58;;;;;;;5.57;1.13;;;;;;;-147.53;100.00;57128.34;15278888;19;20006;-70
2022/01/22 06:34:05;;;;;;;5.45;1.10;;;;;;;-147.53;100.00;57128.34;15278011;19;20641;-70
2022/01/22 06:39:13;;;;;;;8.23;1.13;;;;;;;-147.53;100.00;57128.34;15280515;19;20995;-69
2022/01/22 06:44:37;;;;;;;11.57;1.25;;;;;;;-147.53;100.00;57128.34;15278913;19;20079;-70
2022/01/22 06:50:03;;;;;;;3.05;1.10;;;;;;;-147.53;100.00;57128.34;15280709;19;20015;-71
2022/01/22 06:55:38;;;;;;;6.50;1.35;;;;;;;-147.53;100.00;57128.34;15175234;19;2004465;-70
2022/01/22 07:00:41;;;;;;;3.38;1.25;;;;;;;-147.53;100.00;57128.34;15278262;19;20619;-70
2022/01/22 07:05:56;;;;;;;7.47;1.67;;;;;;;-147.53;100.00;57128.34;15279289;19;20021;-70
2022/01/22 07:11:01;;;;;;;6.95;1.63;;;;;;;-147.53;100.00;57128.34;15279107;19;20034;-70
2022/01/22 07:16:04;;;;;;;6.00;1.63;;;;;;;-147.53;100.00;57128.34;15275464;19;20364;-70
2022/01/22 07:21:20;;;;;;;3.75;1.50;;;;;;;-147.53;100.00;57128.34;15278204;19;20014;-71
2022/01/22 07:26:24;;;;;;;7.03;1.85;;;;;;;-147.53;100.00;57128.34;15273482;19;20538;-69
2022/01/22 07:31:30;;;;;;;4.97;1.60;;;;;;;-147.53;100.00;57128.34;15277039;19;20106;-70
2022/01/22 07:36:36;;;;;;;11.40;2.42;;;;;;;-147.53;100.00;57128.34;15272482;19;20025;-70
2022/01/22 07:41:38;;;;;;;4.78;1.77;;;;;;;-147.53;100.00;57128.34;15277474;19;20014;-69
2022/01/22 07:47:00;;;;;;;4.93;1.80;;;;;;;-147.53;100.00;57128.34;15272126;19;20701;-69
2022/01/22 07:52:04;;;;;;;8.63;1.85;;;;;;;-147.53;100.00;57128.34;15276141;19;20041;-69
2022/01/22 07:57:08;;;;;;;8.23;1.95;;;;;;;-147.53;100.00;57128.34;15272935;19;20011;-70
2022/01/22 08:02:10;;;;;;;5.82;1.73;;;;;;;-147.53;100.00;57128.34;15280185;19;20491;-68
2022/01/22 08:07:12;;;;;;;4.15;1.42;;;;;;;-147.53;100.00;57128.34;15275433;19;20022;-70
2022/01/22 08:12:37;;;;;;;6.35;2.38;;;;;;;-147.53;100.00;57128.34;15275325;19;20011;-70
2022/01/22 08:17:44;;;;;;;6.38;1.92;;;;;;;-147.53;100.00;57128.34;15273785;19;20592;-70
2022/01/22 08:22:51;;;;;;;5.60;2.10;;;;;;;-147.53;100.00;57128.34;15271601;19;20074;-70
2022/01/22 08:38:35;;;;;;;5.85;1.77;;;;;;;-147.53;100.00;57128.34;15272212;19;20027;-70
2022/01/22 08:43:37;;;;;;;4.68;2.03;;;;;;;-147.53;100.00;57128.34;15270920;19;20458;-70
2022/01/22 08:48:39;;;;;;;5.50;1.65;;;;;;;-147.53;100.00;57128.34;15276547;19;20017;-70
2022/01/22 08:53:41;;;;;;;3.95;1.77;;;;;;;-147.53;100.00;57128.34;15286573;19;20010;-70
2022/01/22 08:58:44;;;;;;;5.75;1.70;;;;;;;-147.53;100.00;57128.34;15287702;19;20464;-69
2022/01/22 09:03:54;;;;;;;3.33;1.42;;;;;;;-147.53;100.00;57128.34;15283881;19;20059;-70
2022/01/22 09:09:22;;;;;;;5.45;1.60;;;;;;;-147.53;100.00;57128.34;15285060;19;20014;-69
2022/01/22 09:14:43;;;;;;;4.38;1.50;;;;;;;-147.53;100.00;57128.34;15285305;19;20022;-70
2022/01/22 09:19:47;;;;;;;5.45;1.55;;;;;;;-147.53;100.00;57128.34;15283579;19;20010;-69
2022/01/22 09:24:52;;;;;;;2.17;1.10;;;;;;;-147.53;100.00;57128.34;15282678;19;20025;-70
2022/01/22 09:29:54;;;;;;;1.88;1.08;;;;;;;-147.53;100.00;57128.34;15284992;19;20019;-70
2022/01/22 09:34:59;;;;;;;2.10;1.23;;;;;;;-147.53;100.00;57128.34;15280609;19;20014;-70
2022/01/22 09:40:21;;;;;;;1.95;1.05;;;;;;;-147.53;100.00;57128.34;15180828;19;2004338;-70
2022/01/22 09:45:42;;;;;;;5.50;1.90;;;;;;;-147.53;100.00;57128.34;15280560;19;20021;-71
2022/01/22 09:50:53;;;;;;;1.65;0.98;;;;;;;-147.53;100.00;57128.34;15285428;19;20015;-70
2022/01/22 09:56:19;;;;;;;1.50;0.65;;;;;;;-147.53;100.00;57128.34;15282084;19;20011;-70
2022/01/22 10:01:41;;;;;;;3.72;0.90;;;;;;;-147.53;100.00;57128.34;15286342;19;20346;-68
2022/01/22 10:06:53;;;;;;;2.03;0.73;;;;;;;-147.53;100.00;57128.34;15281135;19;20091;-69
2022/01/22 10:12:10;;;;;;;2.40;0.70;;;;;;;-147.53;100.00;57128.34;15282477;19;20022;-71
2022/01/22 10:17:47;;;;;;;2.55;1.13;;;;;;;-147.53;100.00;57128.34;15282513;19;20086;-70
2022/01/22 10:22:59;;;;;;;1.45;0.80;;;;;;;-147.53;100.00;57128.34;15281453;19;20070;-70
2022/01/22 10:28:09;;;;;;;2.63;0.95;;;;;;;-147.53;100.00;57128.34;15283374;19;20066;-70
2022/01/22 10:38:50;;;;;;;1.97;0.80;;;;;;;-147.53;100.00;57128.34;15280805;19;20718;-70
2022/01/22 10:43:54;;;;;;;4.50;1.10;;;;;;;-147.53;100.00;57128.34;15277334;19;20082;-70
2022/01/22 10:49:10;;;;;;;1.85;0.68;;;;;;;-147.53;100.00;57128.34;15283023;19;20018;-70
2022/01/22 10:54:13;;;;;;;2.33;0.88;;;;;;;-147.53;100.00;57128.34;15279702;19;20010;-70
2022/01/22 10:59:17;;;;;;;4.78;0.70;;;;;;;-147.53;100.00;57128.34;15279278;19;20011;-70
2022/01/22 11:04:41;;;;;;;1.50;0.90;;;;;;;-147.53;100.00;57128.34;15279259;19;20471;-70
2022/01/22 11:09:46;;;;;;;2.25;0.65;;;;;;;-147.53;100.00;57128.34;15280798;19;20494;-70
2022/01/22 11:14:50;;;;;;;2.08;0.80;;;;;;;-147.53;100.00;57128.34;15276503;19;20569;-70
2022/01/22 11:19:55;;;;;;;0.55;0.35;;;;;;;-147.53;100.00;57128.34;15276628;19;20798;-70
2022/01/22 11:24:58;;;;;;;2.33;0.60;;;;;;;-147.53;100.00;57128.34;15277201;19;20032;-70
2022/01/22 11:30:09;;;;;;;3.50;0.50;;;;;;;-147.53;100.00;57128.34;15280205;19;20090;-70
2022/01/22 11:35:13;;;;;;;1.95;0.55;;;;;;;-147.53;100.00;57128.34;15276499;19;20010;-70
2022/01/22 11:40:27;;;;;;;3.78;0.70;;;;;;;-147.53;100.00;57128.34;15276457;19;20026;-69
2022/01/22 11:45:31;;;;;;;0.40;0.40;;;;;;;-147.53;100.00;57128.34;15276150;19;20146;-69
2022/01/22 11:50:33;;;;;;;1.05;0.50;;;;;;;-147.53;100.00;57128.34;15276019;19;20108;-69
2022/01/22 11:55:35;;;;;;;1.33;0.40;;;;;;;-147.53;100.00;57128.34;15275526;19;20018;-69
2022/01/22 12:00:45;;;;;;;1.75;0.40;;;;;;;-147.53;100.00;57128.34;15276912;19;20102;-67
2022/01/22 12:05:52;;;;;;;;;;;;;;;-147.53;100.00;57128.34;15277462;19;20023;-69
2022/01/22 12:16:39;;;;;;;5.55;0.85;;;;;;;-147.53;100.00;57128.34;15271060;19;20026;-70
2022/01/22 12:21:40;;;;;;;2.47;0.70;;;;;;;-147.53;100.00;57128.34;15270371;19;20467;-69
2022/01/22 12:26:45;;;;;;;2.95;0.70;;;;;;;-147.53;100.00;57128.34;15273000;19;20026;-69
2022/01/22 12:32:07;;;;;;;3.20;0.45;;;;;;;-147.53;100.00;57128.34;15275693;19;20113;-69
2022/01/22 12:37:21;;;;;;;6.60;0.50;;;;;;;-147.53;100.00;57128.34;15272047;19;20010;-69
2022/01/22 12:42:52;;;;;;;4.25;1.17;;;;;;;-147.53;100.00;57128.34;15275871;19;20017;-69
2022/01/22 12:47:55;;;;;;;1.45;0.50;;;;;;;-147.53;100.00;57128.34;15275819;19;20018;-69
2022/01/22 12:53:03;;;;;;;3.50;0.57;;;;;;;-147.53;100.00;57128.34;15271724;19;20011;-69
2022/01/22 12:58:04;;;;;;;4.25;0.63;;;;;;;-147.53;100.00;57128.34;15272720;19;20038;-70
2022/01/22 13:03:06;;;;;;;2.47;0.63;;;;;;;-147.53;100.00;57128.34;15272271;19;20015;-71
2022/01/22 13:08:08;;;;;;;3.30;0.63;;;;;;;-147.53;100.00;57128.34;15273805;19;20482;-71
2022/01/22 13:13:18;;;;;;;7.22;0.60;;;;;;;-147.53;100.00;57128.34;15271583;19;20026;-70
2022/01/22 13:18:19;;;;;;;4.20;1.10;;;;;;;-147.53;100.00;57128.34;15272648;19;20336;-70
2022/01/22 13:23:21;;;;;;;4.50;0.60;;;;;;;-147.53;100.00;57128.34;15273522;19;20090;-70
2022/01/22 13:28:27;;;;;;;4.75;0.93;;;;;;;-147.53;100.00;57128.34;15274057;19;20023;-70
2022/01/22 13:39:01;;;;;;;3.97;1.00;;;;;;;-147.53;100.00;57128.34;15284638;19;20021;-70
2022/01/22 13:49:27;;;;;;;4.47;0.90;;;;;;;-147.53;100.00;57128.34;15285943;19;20021;-69
2022/01/22 13:54:36;;;;;;;4.13;0.45;;;;;;;-147.53;100.00;57128.34;15283207;19;20031;-70
2022/01/22 13:59:41;;;;;;;1.70;0.73;;;;;;;-147.53;100.00;57128.34;15281698;19;20042;-70
2022/01/22 14:05:07;;;;;;;4.22;0.73;;;;;;;-147.53;100.00;57128.34;15284030;19;20014;-70
2022/01/22 14:10:17;;;;;;;4.07;1.52;;;;;;;-147.53;100.00;57128.34;15284551;19;20015;-70
2022/01/22 14:15:35;;;;;;;1.43;0.70;;;;;;;-147.53;100.00;57128.34;15177801;19;2004235;-70
2022/01/22 14:21:05;;;;;;;1.27;0.70;;;;;;;-147.53;100.00;57128.34;15280870;19;20042;-70
2022/01/22 14:26:11;;;;;;;5.57;1.05;;;;;;;-147.53;100.00;57128.34;15281208;19;20011;-70
2022/01/22 14:31:24;;;;;;;3.88;0.80;;;;;;;-147.53;100.00;57128.34;15284376;19;20470;-70
2022/01/22 14:36:32;;;;;;;3.53;0.80;;;;;;;-147.53;100.00;57128.34;15280221;19;20489;-71
2022/01/22 14:47:16;;;;;;;6.45;1.10;;;;;;;-147.53;100.00;57128.34;15276199;19;20165;-71
2022/01/22 14:52:27;;;;;;;3.33;1.08;;;;;;;-147.53;100.00;57128.34;15281789;19;20014;-70
2022/01/22 14:57:35;;;;;;;3.40;1.20;;;;;;;-147.53;100.00;57128.34;15278712;19;20031;-71
2022/01/22 15:02:39;;;;;;;4.45;1.40;;;;;;;-147.53;100.00;57128.34;15283405;19;20038;-70
2022/01/22 15:07:43;;;;;;;6.93;1.27;;;;;;;-147.53;100.00;57128.34;15284245;19;20026;-70
2022/01/22 15:12:45;;;;;;;4.63;1.15;;;;;;;-147.53;100.00;57128.34;15280927;19;20477;-70
2022/01/22 15:18:50;;;;;;;3.42;1.15;;;;;;;-147.53;100.00;57128.34;15279200;19;20077;-70
2022/01/22 15:23:28;;;;;;;3.88;1.00;;;;;;;-147.53;100.00;57128.34;15277646;19;20482;-70
2022/01/22 15:28:35;;;;;;;4.07;1.30;;;;;;;-147.53;100.00;57128.34;15280542;19;20078;-70
2022/01/22 15:33:51;;;;;;;5.75;0.93;;;;;;;-147.53;100.00;57128.34;15278073;19;20125;-70
2022/01/22 15:38:53;;;;;;;4.55;0.98;;;;;;;-147.53;100.00;57128.34;15279998;19;20024;-70
2022/01/22 15:43:54;;;;;;;6.38;1.70;;;;;;;-147.53;100.00;57128.34;15277796;19;20031;-69
2022/01/22 15:48:56;;;;;;;4.78;1.20;;;;;;;-147.53;100.00;57128.34;15276011;19;20380;-69
2022/01/22 15:54:00;;;;;;;1.48;0.93;;;;;;;-147.53;100.00;57128.34;15276223;19;20077;-70
2022/01/22 15:59:04;;;;;;;5.63;1.52;;;;;;;-147.53;100.00;57128.34;15273770;19;20007;-69
2022/01/22 16:04:07;;;;;;;3.20;1.33;;;;;;;-147.53;100.00;57128.34;15278991;19;20029;-69
2022/01/22 16:09:12;;;;;;;4.28;1.50;;;;;;;-147.53;100.00;57128.34;15277855;19;20093;-70
2022/01/22 16:14:33;;;;;;;3.35;1.58;;;;;;;-147.53;100.00;57128.34;15275115;19;20581;-70
2022/01/22 16:19:38;;;;;;;4.72;1.67;;;;;;;-147.53;100.00;57128.34;15274039;19;20081;-69
2022/01/22 16:24:40;;;;;;;5.55;2.00;;;;;;;-147.53;100.00;57128.34;15274419;19;20014;-69
2022/01/22 16:29:44;;;;;;;5.13;1.80;;;;;;;-147.53;100.00;57128.34;15275526;19;20070;-69
2022/01/22 16:34:46;;;;;;;8.63;2.00;;;;;;;-147.53;100.00;57128.34;15273135;19;20043;-68
2022/01/22 16:39:50;;;;;;;5.25;1.58;;;;;;;-147.53;100.00;57128.34;15271106;19;20015;-68
2022/01/22 16:55:46;;;;;;;5.38;1.60;;;;;;;-147.53;100.00;57128.34;15272007;19;20038;-78
2022/01/22 17:00:57;;;;;;;7.28;1.65;;;;;;;-147.53;100.00;57128.34;15269434;19;20166;-68
2022/01/22 17:06:01;;;;;;;5.32;2.20;;;;;;;-147.53;100.00;57128.34;15275124;19;20029;-69
2022/01/22 17:11:07;;;;;;;3.65;1.75;;;;;;;-147.53;100.00;57128.34;15280247;19;20023;-68
2022/01/22 17:16:09;;;;;;;7.53;2.40;;;;;;;-147.53;100.00;57128.34;15284671;19;20027;-69
2022/01/22 17:21:13;;;;;;;11.23;2.20;;;;;;;-147.53;100.00;57128.34;15284343;19;20375;-68
2022/01/22 17:26:17;;;;;;;6.80;2.05;;;;;;;-147.53;100.00;57128.34;15286101;19;20046;-69
2022/01/22 17:31:22;;;;;;;6.07;2.30;;;;;;;-147.53;100.00;57128.34;15286616;19;20102;-69
2022/01/22 17:36:24;;;;;;;9.80;3.30;;;;;;;-147.53;100.00;57128.34;15284635;19;20081;-68
2022/01/22 17:41:27;;;;;;;9.57;2.75;;;;;;;-147.53;100.00;57128.34;15286945;19;20089;-68
2022/01/22 17:46:30;;;;;;;8.20;2.42;;;;;;;-147.53;100.00;57128.34;15281889;19;20014;-69
2022/01/22 17:51:32;;;;;;;9.45;2.90;;;;;;;-147.53;100.00;57128.34;15286450;19;20015;-69
2022/01/22 17:56:34;;;;;;;8.50;2.83;;;;;;;-147.53;100.00;57128.34;15280568;19;20022;-69
2022/01/22 18:01:36;;;;;;;6.82;2.67;;;;;;;-147.53;100.00;57128.34;15288698;19;20031;-68
2022/01/22 18:06:39;;;;;;;9.80;3.70;;;;;;;-147.53;100.00;57128.34;15283854;19;20014;-70
2022/01/22 18:11:45;;;;;;;13.82;3.88;;;;;;;-147.53;100.00;57128.34;15286770;19;20031;-69
2022/01/22 18:16:47;;;;;;;15.88;4.90;;;;;;;-147.53;100.00;57128.34;15281123;19;20514;-69
2022/01/22 18:21:50;;;;;;;11.93;5.00;;;;;;;-147.53;100.00;57128.34;15282672;19;20412;-69
2022/01/22 18:26:52;;;;;;;13.27;4.38;;;;;;;-147.53;100.00;57128.34;15280737;19;20014;-69
2022/01/22 18:31:54;;;;;;;12.10;3.92;;;;;;;-147.53;100.00;57128.34;15283219;19;20030;-69
2022/01/22 18:37:00;;;;;;;14.63;6.07;;;;;;;-147.53;100.00;57128.34;15280760;19;20098;-69
2022/01/22 18:42:06;;;;;;;15.43;4.88;;;;;;;-147.53;100.00;57128.34;15284994;19;20022;-68
2022/01/22 18:47:07;;;;;;;15.88;5.05;;;;;;;-147.53;100.00;57128.34;15278022;19;20069;-69
2022/01/22 18:52:14;;;;;;;12.60;4.93;;;;;;;-147.53;100.00;57128.34;15283326;19;20021;-69
2022/01/22 18:57:16;;;;;;;11.68;4.82;;;;;;;-147.53;100.00;57128.34;15277272;19;20023;-69
2022/01/22 19:02:20;;;;;;;15.43;5.32;;;;;;;-147.53;100.00;57128.34;15286106;19;20527;-69
2022/01/22 19:07:23;;;;;;;15.27;5.95;;;;;;;-147.53;100.00;57128.34;15280389;19;20021;-68
2022/01/22 19:12:24;;;;;;;15.30;4.97;;;;;;;-147.53;100.00;57128.34;15283799;19;20087;-69
2022/01/22 19:17:28;;;;;;;17.10;4.85;;;;;;;-147.53;100.00;57128.34;15277587;19;20078;-69
2022/01/22 19:33:09;;;;;;;15.18;5.45;;;;;;;-147.53;100.00;57128.34;15274505;19;20077;-69
2022/01/22 19:38:15;;;;;;;18.13;4.88;;;;;;;-147.53;100.00;57128.34;15277541;19;20534;-68
2022/01/22 19:43:19;;;;;;;13.65;4.53;;;;;;;-147.53;100.00;57128.34;15275894;19;20011;-69
2022/01/22 19:48:20;;;;;;;25.13;6.20;;;;;;;-147.53;100.00;57128.34;15278487;19;20423;-69
2022/01/22 19:53:22;;;;;;;12.75;5.90;;;;;;;-147.53;100.00;57128.34;15277352;19;20035;-69
2022/01/22 19:58:24;;;;;;;11.40;3.78;;;;;;;-147.53;100.00;57128.34;15277559;19;20760;-68
2022/01/22 20:03:29;;;;;;;11.77;4.00;;;;;;;-147.53;100.00;57128.34;15277900;19;20077;-69
2022/01/22 20:08:31;;;;;;;11.55;3.85;;;;;;;-147.53;100.00;57128.34;15275433;19;20035;-68
2022/01/22 20:13:32;;;;;;;10.95;4.05;;;;;;;-147.53;100.00;57128.34;15272453;19;20021;-69
2022/01/22 20:18:34;;;;;;;11.05;3.47;;;;;;;-147.53;100.00;57128.34;15274826;19;20022;-69
2022/01/22 20:23:58;;;;;;;12.45;3.63;;;;;;;-147.53;100.00;57128.34;15273387;19;20014;-69
2022/01/22 20:29:00;;;;;;;15.02;4.15;;;;;;;-147.53;100.00;57128.34;15274732;19;20014;-69
2022/01/22 20:34:03;;;;;;;11.15;3.70;;;;;;;-147.53;100.00;57128.34;15271674;19;20090;-68
2022/01/22 20:39:07;;;;;;;13.40;3.28;;;;;;;-147.53;100.00;57128.34;15272943;19;20011;-68
2022/01/22 20:44:08;;;;;;;15.40;5.05;;;;;;;-147.53;100.00;57128.34;15275100;19;20078;-69
2022/01/22 20:49:14;;;;;;;10.55;4.13;;;;;;;-147.53;100.00;57128.34;15291370;19;20486;-69
2022/01/22 20:54:15;;;;;;;12.60;3.83;;;;;;;-147.53;100.00;57128.34;15285400;19;20017;-68
2022/01/22 20:59:17;;;;;;;12.52;3.95;;;;;;;-147.53;100.00;57128.34;15285442;19;20465;-69
2022/01/22 21:04:19;;;;;;;10.60;4.55;;;;;;;-147.53;100.00;57128.34;15288664;19;20098;-68
2022/01/22 21:09:24;;;;;;;9.13;3.28;;;;;;;-147.53;100.00;57128.34;15288062;19;20042;-69
2022/01/22 21:14:26;;;;;;;13.23;3.83;;;;;;;-147.53;100.00;57128.34;15284772;19;20117;-68
2022/01/22 21:19:29;;;;;;;16.45;4.30;;;;;;;-147.53;100.00;57128.34;15284925;19;20408;-68
2022/01/22 21:24:32;;;;;;;9.32;3.95;;;;;;;-147.53;100.00;57128.34;15285237;19;20010;-69
2022/01/22 21:29:33;;;;;;;11.95;3.33;;;;;;;-147.53;100.00;57128.34;15288204;19;20014;-69
2022/01/22 21:34:37;;;;;;;17.33;3.85;;;;;;;-147.53;100.00;57128.34;15286116;19;20512;-69
2022/01/22 21:39:42;;;;;;;15.13;3.20;;;;;;;-147.53;100.00;57128.34;15282556;19;20014;-69
2022/01/22 21:44:44;;;;;;;11.45;3.28;;;;;;;-147.53;100.00;57128.34;15282106;19;20502;-69
2022/01/22 21:49:47;;;;;;;11.65;4.03;;;;;;;-147.53;100.00;57128.34;15285167;19;20023;-68
2022/01/22 21:54:49;;;;;;;12.50;4.35;;;;;;;-147.53;100.00;57128.34;15278825;19;20636;-69
2022/01/22 21:59:51;;;;;;;12.15;4.07;;;;;;;-147.53;100.00;57128.34;15283139;19;20499;-68
2022/01/22 22:04:55;;;;;;;8.65;3.72;;;;;;;-147.53;100.00;57128.34;15285379;19;20408;-68
2022/01/22 22:09:57;;;;;;;11.82;3.88;;;;;;;-147.53;100.00;57128.34;15284591;19;20034;-68
2022/01/22 22:14:59;;;;;;;14.57;4.57;;;;;;;-147.53;100.00;57128.34;15281295;19;20015;-69
2022/01/22 22:20:01;;;;;;;13.52;4.78;;;;;;;-147.53;100.00;57128.34;15280526;19;20572;-68
2022/01/22 22:25:05;;;;;;;14.98;5.32;;;;;;;-147.53;100.00;57128.34;15281649;19;20015;-68
2022/01/22 22:30:08;;;;;;;12.60;5.32;;;;;;;-147.53;100.00;57128.34;15284858;19;20019;-69
2022/01/22 22:35:10;;;;;;;16.70;5.15;;;;;;;-147.53;100.00;57128.34;15281361;19;20042;-68
2022/01/22 22:40:14;;;;;;;13.75;5.53;;;;;;;-147.53;100.00;57128.34;15280995;19;20581;-68
2022/01/22 22:45:17;;;;;;;16.85;5.43;;;;;;;-147.53;100.00;57128.34;15279510;19;20679;-68
2022/01/22 22:50:20;;;;;;;10.52;4.70;;;;;;;-147.53;100.00;57128.34;15282453;19;20010;-68
2022/01/22 22:55:22;;;;;;;14.40;5.22;;;;;;;-147.53;100.00;57128.34;15280542;19;20066;-68
2022/01/22 23:00:44;;;;;;;14.30;4.90;;;;;;;-147.53;100.00;57128.34;15279809;19;20086;-66
2022/01/22 23:05:47;;;;;;;14.32;4.10;;;;;;;-147.53;100.00;57128.34;15277992;19;20090;-68
2022/01/22 23:10:51;;;;;;;10.55;3.95;;;;;;;-147.53;100.00;57128.34;15278840;19;20010;-69
2022/01/22 23:15:58;;;;;;;12.15;3.35;;;;;;;-147.53;100.00;57128.34;15278273;19;20031;-68
2022/01/22 23:21:29;;;;;;;12.10;3.88;;;;;;;-147.53;100.00;57128.34;15277169;19;20029;-68
2022/01/22 23:26:34;;;;;;;9.43;3.55;;;;;;;-147.53;100.00;57128.34;15274655;19;20054;-68
2022/01/22 23:31:49;;;;;;;7.57;3.38;;;;;;;-147.53;100.00;57128.34;15279900;19;20035;-69
2022/01/22 23:37:31;;;;;;;8.52;3.25;;;;;;;-147.53;100.00;57128.34;15276087;19;20312;-68
2022/01/22 23:58:17;;;;;;;;;;;;;;;-147.53;100.00;57128.34;15279589;19;20032;-69
